Time;durP1;ratioP1;P1;durP2;ratioP2;P2;SDS_P1;SDS_P2;PMS_P1;PMS_P2;Temp;Humidity;BMP_temperature;BMP_pressure;BME280_temperature;BME280_humidity;BME280_pressure;Samples;Min_cycle;Max_cycle;Signal;HPM_P1;HPM_P2
2023/10/19 00:00:56;;;;;;;30.45;17.48;;;7.20;99.90;;;;;;8278850;28;20022;-83
2023/10/19 00:04:56;;;;;;;29.95;17.80;;;7.30;99.90;;;;;;8272653;28;20034;-84
2023/10/19 00:08:59;;;;;;;30.95;17.15;;;7.20;99.90;;;;;;8270325;28;20040;-84
2023/10/19 00:13:03;;;;;;;30.08;17.48;;;7.20;99.90;;;;;;8264881;28;20034;-84
2023/10/19 00:17:06;;;;;;;32.60;18.33;;;7.50;99.90;;;;;;8250687;28;20030;-85
2023/10/19 00:21:24;;;;;;;29.45;17.55;;;7.40;99.90;;;;;;8274287;28;20031;-84
2023/10/19 00:25:25;;;;;;;29.83;17.00;;;7.40;99.90;;;;;;8258099;28;20475;-85
2023/10/19 00:29:40;;;;;;;30.85;17.10;;;7.50;99.90;;;;;;8281970;28;20030;-84
2023/10/19 00:33:41;;;;;;;28.25;17.30;;;7.80;99.90;;;;;;8264174;28;20022;-84
2023/10/19 00:37:42;;;;;;;28.90;16.63;;;7.70;99.90;;;;;;8271992;28;20029;-85
2023/10/19 00:41:47;;;;;;;25.85;16.08;;;7.60;99.90;;;;;;8284848;28;20072;-85
2023/10/19 00:45:52;;;;;;;24.85;16.55;;;7.60;99.90;;;;;;8277049;28;20022;-86
2023/10/19 00:49:54;;;;;;;25.38;15.63;;;7.60;99.90;;;;;;8276905;28;20023;-85
2023/10/19 00:54:10;;;;;;;25.30;15.55;;;7.60;99.90;;;;;;8284427;28;20028;-85
2023/10/19 00:58:14;;;;;;;29.00;16.50;;;7.50;99.90;;;;;;8272174;28;20034;-84
2023/10/19 01:02:43;;;;;;;25.40;15.93;;;7.50;99.90;;;;;;8288833;28;20053;-85
2023/10/19 01:06:35;;;;;;;21.02;13.88;;;7.50;99.90;;;;;;8283727;28;20523;-84
2023/10/19 01:10:36;;;;;;;23.10;14.73;;;7.40;99.90;;;;;;8261076;28;20030;-85
2023/10/19 01:14:38;;;;;;;24.10;13.48;;;7.40;99.90;;;;;;8280040;28;20494;-84
2023/10/19 01:18:41;;;;;;;17.30;12.05;;;7.30;99.90;;;;;;8264654;28;20058;-84
2023/10/19 01:23:05;;;;;;;21.92;12.95;;;7.30;99.90;;;;;;8282345;28;20026;-84
2023/10/19 01:27:08;;;;;;;23.65;14.82;;;7.40;99.90;;;;;;8276455;28;20042;-85
2023/10/19 01:31:22;;;;;;;26.15;15.52;;;7.40;99.90;;;;;;8280438;28;20030;-84
2023/10/19 01:35:23;;;;;;;27.63;16.83;;;7.40;99.90;;;;;;8266171;28;20565;-86
2023/10/19 01:39:25;;;;;;;25.58;14.90;;;7.50;99.90;;;;;;8274237;28;20021;-84
2023/10/19 01:43:32;;;;;;;22.35;14.15;;;7.60;99.90;;;;;;8278932;28;20057;-84
2023/10/19 01:47:33;;;;;;;27.52;16.88;;;7.70;99.90;;;;;;8253917;28;20029;-84
2023/10/19 01:51:38;;;;;;;26.75;16.25;;;7.90;99.90;;;;;;8254212;28;20033;-85
2023/10/19 01:55:38;;;;;;;25.45;15.50;;;7.80;99.90;;;;;;8262268;28;20549;-84
2023/10/19 01:59:39;;;;;;;22.58;14.50;;;7.80;99.90;;;;;;8274961;28;20034;-86
2023/10/19 02:03:43;;;;;;;26.40;15.43;;;7.80;99.90;;;;;;8266629;28;20025;-84
2023/10/19 02:07:43;;;;;;;25.38;15.02;;;7.80;99.90;;;;;;8264597;28;20124;-84
2023/10/19 02:11:48;;;;;;;26.20;15.70;;;8.10;99.90;;;;;;8274306;28;20037;-84
2023/10/19 02:15:51;;;;;;;22.08;14.05;;;8.30;99.90;;;;;;8265534;28;20022;-84
2023/10/19 02:19:53;;;;;;;20.85;13.52;;;8.30;99.90;;;;;;8285923;28;20088;-84
2023/10/19 02:23:53;;;;;;;22.83;14.10;;;8.30;99.90;;;;;;8260248;28;20418;-84
2023/10/19 02:27:54;;;;;;;21.77;13.57;;;8.30;99.90;;;;;;8281413;28;20027;-84
2023/10/19 02:31:56;;;;;;;24.17;14.80;;;8.20;99.90;;;;;;8250154;28;20034;-85
2023/10/19 02:35:57;;;;;;;22.23;14.35;;;8.40;99.90;;;;;;8282011;28;20057;-85
2023/10/19 02:39:58;;;;;;;23.83;14.30;;;8.60;99.90;;;;;;8264206;28;20061;-84
2023/10/19 02:44:41;;;;;;;19.70;13.48;;;8.40;99.90;;;;;;8284396;28;20034;-84
2023/10/19 02:48:24;;;;;;;23.50;13.90;;;8.50;99.90;;;;;;8267516;28;20065;-84
2023/10/19 02:52:24;;;;;;;21.67;13.38;;;8.20;99.90;;;;;;8272500;28;20129;-85
2023/10/19 02:56:26;;;;;;;19.05;12.70;;;7.90;99.90;;;;;;8270003;28;20065;-85
2023/10/19 03:00:34;;;;;;;18.95;12.10;;;7.70;99.90;;;;;;8283638;28;20491;-85
2023/10/19 03:04:35;;;;;;;18.67;11.82;;;7.50;99.90;;;;;;8271003;28;20026;-84
2023/10/19 03:08:36;;;;;;;17.50;10.60;;;7.30;99.90;;;;;;8266267;28;20080;-84
2023/10/19 03:12:36;;;;;;;60.00;11.73;;;7.10;99.90;;;;;;8271333;28;20030;-85
2023/10/19 03:16:37;;;;;;;72.53;12.57;;;7.00;99.90;;;;;;8268875;28;20109;-85
2023/10/19 03:20:38;;;;;;;17.95;11.75;;;6.80;99.90;;;;;;8265662;28;20410;-85
2023/10/19 03:24:40;;;;;;;36.78;11.80;;;6.70;99.90;;;;;;8271060;28;20025;-84
2023/10/19 03:28:42;;;;;;;21.67;13.40;;;6.80;99.90;;;;;;8271982;28;20036;-85
2023/10/19 03:32:43;;;;;;;27.42;14.35;;;7.00;99.90;;;;;;8264300;28;20387;-84
2023/10/19 03:36:44;;;;;;;21.85;13.40;;;7.00;99.90;;;;;;8259941;28;20050;-84
2023/10/19 03:40:51;;;;;;;24.27;13.60;;;7.00;99.90;;;;;;8253360;28;20172;-84
2023/10/19 03:44:55;;;;;;;24.58;14.82;;;6.90;99.90;;;;;;8257079;28;20088;-85
2023/10/19 03:49:03;;;;;;;25.13;13.95;;;6.90;99.90;;;;;;8272763;28;20596;-85
2023/10/19 03:53:07;;;;;;;22.10;13.00;;;7.00;99.90;;;;;;8258123;28;20033;-85
2023/10/19 03:57:12;;;;;;;20.52;12.43;;;7.20;99.90;;;;;;8261233;28;20069;-85
2023/10/19 04:01:16;;;;;;;19.98;11.23;;;7.00;99.90;;;;;;8269940;28;20398;-85
2023/10/19 04:05:22;;;;;;;21.88;12.55;;;6.80;99.90;;;;;;8270985;28;20053;-85
2023/10/19 04:09:29;;;;;;;22.67;13.35;;;6.70;99.90;;;;;;8275059;28;20026;-85
2023/10/19 04:13:29;;;;;;;25.15;14.15;;;6.90;99.90;;;;;;8262967;28;20110;-84
2023/10/19 04:17:30;;;;;;;24.48;14.38;;;7.10;99.90;;;;;;8259122;28;20015;-85
2023/10/19 04:21:30;;;;;;;23.33;14.20;;;7.20;99.90;;;;;;8259804;28;20026;-85
2023/10/19 04:25:31;;;;;;;21.52;13.48;;;7.30;99.90;;;;;;8281881;28;20502;-85
2023/10/19 04:29:32;;;;;;;26.92;14.40;;;7.30;99.90;;;;;;8275082;28;20045;-85
2023/10/19 04:33:34;;;;;;;23.00;13.10;;;7.40;99.90;;;;;;8277976;28;20034;-84
2023/10/19 04:37:34;;;;;;;21.88;13.82;;;7.40;99.90;;;;;;8276697;28;20014;-85
2023/10/19 04:41:35;;;;;;;20.92;13.45;;;7.40;99.90;;;;;;8258439;28;20718;-85
2023/10/19 04:45:40;;;;;;;23.48;13.85;;;7.50;99.90;;;;;;8245689;28;20026;-85
2023/10/19 04:49:40;;;;;;;23.02;13.48;;;7.50;99.90;;;;;;8284463;28;20031;-85
2023/10/19 04:53:42;;;;;;;21.60;14.07;;;7.60;99.90;;;;;;8256965;28;20022;-85
2023/10/19 04:57:42;;;;;;;23.58;14.55;;;7.60;99.90;;;;;;8271530;28;20034;-85
2023/10/19 05:01:43;;;;;;;20.73;13.63;;;7.80;99.90;;;;;;8270070;28;20154;-83
2023/10/19 05:05:44;;;;;;;20.33;13.35;;;7.90;99.90;;;;;;8281055;28;20546;-85
2023/10/19 05:09:45;;;;;;;20.13;12.90;;;8.40;99.90;;;;;;8276865;28;20026;-84
2023/10/19 05:13:46;;;;;;;17.70;11.88;;;8.50;99.90;;;;;;8299575;28;20034;-84
2023/10/19 05:17:47;;;;;;;20.08;12.13;;;8.50;99.90;;;;;;8295680;28;20029;-84
2023/10/19 05:21:48;;;;;;;19.33;11.88;;;8.30;99.90;;;;;;8290234;28;20023;-84
2023/10/19 05:25:48;;;;;;;19.27;12.15;;;8.10;99.90;;;;;;8276445;28;20022;-83
2023/10/19 05:29:49;;;;;;;19.70;12.02;;;8.40;99.90;;;;;;8285086;28;20049;-83
2023/10/19 05:33:49;;;;;;;15.85;11.23;;;8.60;99.90;;;;;;8277698;28;20029;-82
2023/10/19 05:37:50;;;;;;;19.60;12.55;;;8.40;99.90;;;;;;8273521;28;20532;-83
2023/10/19 05:41:51;;;;;;;19.63;11.63;;;8.40;99.90;;;;;;8264757;28;20022;-84
2023/10/19 05:45:52;;;;;;;17.95;11.52;;;8.20;99.90;;;;;;8284128;28;20081;-83
2023/10/19 05:49:53;;;;;;;19.73;12.05;;;8.10;99.90;;;;;;8280129;28;20516;-83
2023/10/19 05:54:01;;;;;;;17.80;11.43;;;8.00;99.90;;;;;;8273574;28;20022;-83
2023/10/19 05:58:05;;;;;;;16.30;11.15;;;8.10;99.90;;;;;;8266042;28;20338;-83
2023/10/19 06:02:07;;;;;;;19.35;11.50;;;8.00;99.90;;;;;;8271406;28;20041;-83
2023/10/19 06:06:07;;;;;;;17.20;12.13;;;8.10;99.90;;;;;;8277344;28;20018;-83
2023/10/19 06:10:15;;;;;;;17.40;11.25;;;8.10;99.90;;;;;;8275750;28;20097;-83
2023/10/19 06:14:16;;;;;;;18.23;11.80;;;8.10;99.90;;;;;;8299297;28;20062;-84
2023/10/19 06:18:16;;;;;;;19.08;12.48;;;8.30;99.90;;;;;;8273921;28;20034;-83
2023/10/19 06:22:17;;;;;;;16.58;11.35;;;8.40;99.90;;;;;;8266402;28;20030;-83
2023/10/19 06:26:17;;;;;;;18.33;12.23;;;8.40;99.90;;;;;;8271479;28;20497;-83
2023/10/19 06:30:21;;;;;;;16.52;11.45;;;8.60;99.90;;;;;;8272423;28;20026;-84
2023/10/19 06:34:21;;;;;;;22.10;13.40;;;8.60;99.90;;;;;;8271023;28;20045;-83
2023/10/19 06:38:22;;;;;;;21.15;12.27;;;8.70;99.90;;;;;;8289968;28;20069;-83
2023/10/19 06:42:22;;;;;;;18.00;12.43;;;8.60;99.90;;;;;;8267309;28;20026;-83
2023/10/19 06:46:23;;;;;;;21.15;13.43;;;8.70;99.90;;;;;;8292137;28;20037;-84
2023/10/19 06:50:25;;;;;;;20.15;12.88;;;8.90;99.90;;;;;;8279050;28;20022;-83
2023/10/19 06:54:27;;;;;;;20.75;13.43;;;9.00;99.90;;;;;;8275020;28;20026;-84
2023/10/19 06:58:28;;;;;;;23.35;15.77;;;9.00;99.90;;;;;;8289303;28;20021;-83
2023/10/19 07:02:28;;;;;;;23.20;15.88;;;9.20;99.90;;;;;;8280080;28;20112;-83
2023/10/19 07:06:30;;;;;;;24.83;18.52;;;9.50;99.90;;;;;;8284930;28;20041;-83
2023/10/19 07:10:32;;;;;;;20.67;13.63;;;9.60;99.90;;;;;;8288593;28;20053;-84
2023/10/19 07:14:33;;;;;;;20.55;13.52;;;9.80;99.90;;;;;;8282299;28;20606;-83
2023/10/19 07:18:34;;;;;;;18.55;13.32;;;9.70;99.90;;;;;;8293593;28;20022;-84
2023/10/19 07:22:39;;;;;;;20.70;13.25;;;9.80;99.90;;;;;;8271116;28;20026;-84
2023/10/19 07:26:53;;;;;;;17.65;12.27;;;9.90;99.90;;;;;;8285642;28;20105;-84
2023/10/19 07:30:54;;;;;;;19.92;13.13;;;9.90;99.90;;;;;;8274430;28;20022;-83
2023/10/19 07:34:56;;;;;;;20.77;14.05;;;10.00;99.90;;;;;;8285716;28;20045;-83
2023/10/19 07:38:56;;;;;;;21.15;14.02;;;10.00;99.90;;;;;;8293874;28;20063;-84
2023/10/19 07:42:57;;;;;;;19.73;14.55;;;10.00;99.90;;;;;;8276033;28;20521;-82
2023/10/19 07:46:58;;;;;;;20.60;14.00;;;10.00;99.90;;;;;;8294765;28;20033;-83
2023/10/19 07:50:59;;;;;;;18.83;12.68;;;10.20;99.90;;;;;;8272857;28;20071;-84
2023/10/19 07:54:59;;;;;;;21.30;12.80;;;10.40;99.90;;;;;;8298025;28;20037;-84
2023/10/19 07:59:00;;;;;;;20.15;13.90;;;10.40;99.90;;;;;;8279241;28;20034;-84
2023/10/19 08:03:01;;;;;;;22.40;13.77;;;10.30;99.90;;;;;;8294537;28;20479;-84
2023/10/19 08:07:01;;;;;;;19.90;13.93;;;10.30;99.90;;;;;;8291750;28;20037;-84
2023/10/19 08:11:02;;;;;;;22.02;15.23;;;10.40;99.90;;;;;;8274110;28;20038;-85
2023/10/19 08:15:04;;;;;;;22.95;13.98;;;10.60;99.90;;;;;;8280355;28;20026;-84
2023/10/19 08:19:07;;;;;;;21.83;14.07;;;10.80;99.90;;;;;;8301631;28;20026;-84
2023/10/19 08:23:07;;;;;;;21.60;13.55;;;10.80;99.90;;;;;;8291753;28;20149;-84
2023/10/19 08:27:10;;;;;;;24.85;14.88;;;10.80;99.90;;;;;;8283643;28;20395;-84
2023/10/19 08:31:11;;;;;;;23.58;15.23;;;11.00;99.90;;;;;;8288389;28;20052;-84
2023/10/19 08:35:12;;;;;;;25.25;15.02;;;11.30;99.90;;;;;;8284444;28;20037;-84
2023/10/19 08:39:13;;;;;;;23.23;14.35;;;11.50;99.90;;;;;;8285507;28;20093;-84
2023/10/19 08:43:13;;;;;;;22.30;13.40;;;11.70;99.90;;;;;;8281401;28;20036;-84
2023/10/19 08:47:15;;;;;;;22.92;14.15;;;12.30;99.90;;;;;;8280527;28;20037;-84
2023/10/19 08:51:17;;;;;;;20.27;13.88;;;12.30;99.90;;;;;;8284544;28;20702;-84
2023/10/19 08:55:17;;;;;;;19.92;13.00;;;12.50;99.90;;;;;;8276669;28;20479;-84
2023/10/19 08:59:18;;;;;;;18.48;12.93;;;12.80;99.90;;;;;;8290824;28;20041;-84
2023/10/19 09:03:19;;;;;;;19.13;13.18;;;13.10;99.90;;;;;;8282998;28;20052;-84
2023/10/19 09:07:20;;;;;;;18.00;13.07;;;13.30;99.90;;;;;;8284616;28;20030;-84
2023/10/19 09:11:21;;;;;;;17.38;12.50;;;13.60;99.90;;;;;;8285272;28;20104;-85
2023/10/19 09:15:23;;;;;;;16.10;12.07;;;13.40;99.90;;;;;;8271961;28;20066;-86
2023/10/19 09:19:37;;;;;;;28.80;18.58;;;13.10;99.90;;;;;;8268436;28;20037;-85
2023/10/19 09:23:38;;;;;;;24.58;16.38;;;12.90;99.90;;;;;;8268591;28;20382;-85
2023/10/19 09:27:38;;;;;;;33.00;20.83;;;12.70;99.90;;;;;;8273594;28;20025;-85
2023/10/19 09:31:41;;;;;;;27.77;17.83;;;12.70;99.90;;;;;;8271050;28;20029;-83
2023/10/19 09:35:45;;;;;;;32.92;20.80;;;12.70;99.90;;;;;;8281741;28;20026;-85
2023/10/19 09:39:46;;;;;;;29.05;19.00;;;12.70;99.90;;;;;;8276208;28;20026;-85
2023/10/19 09:43:50;;;;;;;22.90;14.93;;;13.00;99.90;;;;;;8280758;28;20038;-85
2023/10/19 09:47:52;;;;;;;19.05;13.55;;;12.90;99.90;;;;;;8285751;28;20080;-85
2023/10/19 09:51:52;;;;;;;20.55;12.57;;;13.00;99.90;;;;;;8272834;28;20019;-85
2023/10/19 09:55:58;;;;;;;20.98;13.52;;;13.20;99.90;;;;;;8280633;28;20654;-85
2023/10/19 10:00:12;;;;;;;21.23;13.25;;;13.10;99.90;;;;;;8274089;28;20026;-85
2023/10/19 10:04:31;;;;;;;21.23;13.80;;;13.10;99.90;;;;;;8292710;28;20486;-85
2023/10/19 10:08:32;;;;;;;21.45;14.70;;;13.20;99.90;;;;;;8269774;28;20117;-85
2023/10/19 10:12:34;;;;;;;21.08;13.00;;;13.90;99.90;;;;;;8287928;28;20034;-85
2023/10/19 10:16:35;;;;;;;20.00;13.57;;;13.90;99.90;;;;;;8271660;28;20430;-86
2023/10/19 10:20:36;;;;;;;21.13;15.07;;;13.80;99.90;;;;;;8288936;28;20022;-85
2023/10/19 10:24:41;;;;;;;22.58;15.20;;;13.80;99.90;;;;;;8268134;28;20406;-86
2023/10/19 10:28:48;;;;;;;21.27;14.23;;;14.00;99.90;;;;;;8288223;28;20018;-85
2023/10/19 10:32:54;;;;;;;22.70;14.55;;;14.00;99.90;;;;;;8262710;28;20029;-85
2023/10/19 10:37:00;;;;;;;19.67;13.25;;;14.30;99.90;;;;;;8276859;28;20034;-85
2023/10/19 10:41:01;;;;;;;18.20;12.77;;;14.50;99.90;;;;;;8285471;28;20034;-85
2023/10/19 10:45:05;;;;;;;18.55;12.90;;;14.70;99.90;;;;;;8264006;28;20084;-84
2023/10/19 10:49:09;;;;;;;21.65;12.18;;;15.00;99.90;;;;;;8275202;28;20024;-84
2023/10/19 10:53:15;;;;;;;14.93;10.50;;;15.50;99.90;;;;;;8259968;28;20037;-84
2023/10/19 10:57:16;;;;;;;15.50;12.10;;;15.80;99.90;;;;;;8277145;28;20562;-84
2023/10/19 11:01:30;;;;;;;16.85;12.05;;;16.00;99.90;;;;;;8280086;28;20502;-84
2023/10/19 11:05:35;;;;;;;15.63;10.85;;;16.30;99.90;;;;;;8270221;28;20033;-83
2023/10/19 11:09:46;;;;;;;13.43;10.13;;;16.50;99.90;;;;;;8275398;28;20438;-83
2023/10/19 11:13:46;;;;;;;11.27;9.00;;;16.90;99.90;;;;;;8280916;28;20029;-83
2023/10/19 11:17:47;;;;;;;11.55;8.10;;;17.10;99.90;;;;;;8280048;28;20501;-83
2023/10/19 11:21:53;;;;;;;10.60;7.60;;;17.40;99.90;;;;;;8285723;28;20375;-83
2023/10/19 11:25:58;;;;;;;12.60;7.35;;;17.60;99.90;;;;;;8285390;28;20026;-83
2023/10/19 11:30:07;;;;;;;6.70;4.90;;;17.90;99.90;;;;;;8275560;28;20040;-83
2023/10/19 11:34:09;;;;;;;7.40;5.20;;;18.20;99.90;;;;;;8275414;28;20030;-83
2023/10/19 11:38:10;;;;;;;8.40;5.60;;;18.30;99.90;;;;;;8283337;28;20029;-83
2023/10/19 11:42:10;;;;;;;7.63;6.28;;;18.60;99.90;;;;;;8271069;28;20431;-83
2023/10/19 11:46:24;;;;;;;7.20;5.28;;;20.10;99.90;;;;;;8264420;28;20038;-83
2023/10/19 11:50:25;;;;;;;6.78;5.53;;;23.00;99.90;;;;;;8269550;28;20049;-82
2023/10/19 11:54:26;;;;;;;6.07;5.00;;;23.50;99.90;;;;;;8267755;28;20030;-82
2023/10/19 11:58:27;;;;;;;7.18;5.03;;;23.50;99.90;;;;;;8280493;28;20113;-82
2023/10/19 12:02:28;;;;;;;6.10;5.10;;;24.50;99.90;;;;;;8275523;28;20029;-83
2023/10/19 12:06:28;;;;;;;4.70;3.85;;;24.90;99.90;;;;;;8286133;28;20434;-82
2023/10/19 12:10:38;;;;;;;5.18;3.97;;;25.60;99.90;;;;;;8274453;28;20034;-82
2023/10/19 12:14:38;;;;;;;4.03;3.50;;;24.60;99.90;;;;;;8254892;28;20054;-82
2023/10/19 12:18:39;;;;;;;5.53;4.15;;;24.20;99.90;;;;;;8277271;28;20057;-81
2023/10/19 12:22:40;;;;;;;6.40;3.83;;;22.20;99.90;;;;;;8265918;28;20104;-82
2023/10/19 12:26:42;;;;;;;6.68;4.70;;;20.70;99.90;;;;;;8279341;28;20057;-82
2023/10/19 12:30:42;;;;;;;4.75;3.45;;;20.30;99.90;;;;;;8263247;28;20062;-83
2023/10/19 12:34:44;;;;;;;4.88;3.80;;;20.30;99.90;;;;;;8269199;28;20538;-81
2023/10/19 12:38:45;;;;;;;5.95;4.53;;;20.10;99.90;;;;;;8274861;28;20053;-84
2023/10/19 12:42:46;;;;;;;5.75;4.00;;;19.40;99.90;;;;;;8273238;28;20548;-83
2023/10/19 12:46:46;;;;;;;4.05;3.38;;;19.00;99.90;;;;;;8271765;28;20061;-83
2023/10/19 12:50:47;;;;;;;3.53;2.85;;;19.00;99.90;;;;;;8261176;28;20501;-83
2023/10/19 12:54:51;;;;;;;5.20;2.60;;;19.00;99.90;;;;;;8274611;28;20057;-82
2023/10/19 12:58:51;;;;;;;6.15;2.88;;;19.10;99.90;;;;;;8276065;28;20030;-85
2023/10/19 13:02:59;;;;;;;4.63;3.20;;;18.90;99.90;;;;;;8272158;28;20044;-85
2023/10/19 13:07:02;;;;;;;4.88;3.30;;;18.70;99.90;;;;;;8261428;28;20026;-85
2023/10/19 13:11:03;;;;;;;5.45;3.85;;;18.50;99.90;;;;;;8263457;28;20037;-84
2023/10/19 13:15:12;;;;;;;6.28;3.67;;;18.70;99.90;;;;;;8265518;28;20030;-86
2023/10/19 13:19:20;;;;;;;5.65;3.60;;;18.60;99.90;;;;;;8271545;28;20033;-87
2023/10/19 13:23:23;;;;;;;4.65;2.85;;;18.40;99.90;;;;;;8256562;28;20025;-83
2023/10/19 13:27:24;;;;;;;4.80;3.90;;;18.40;99.90;;;;;;8266164;28;20057;-84
2023/10/19 13:31:26;;;;;;;4.57;3.42;;;18.30;99.90;;;;;;8264056;28;20517;-85
2023/10/19 13:35:26;;;;;;;4.82;3.28;;;18.20;99.90;;;;;;8272888;28;20040;-85
2023/10/19 13:39:28;;;;;;;6.45;3.95;;;18.00;99.90;;;;;;8267582;28;20030;-83
2023/10/19 13:43:28;;;;;;;4.03;3.45;;;18.30;99.90;;;;;;8252963;28;20070;-85
2023/10/19 13:47:33;;;;;;;4.88;3.53;;;18.20;99.90;;;;;;8260495;28;20026;-84
2023/10/19 13:51:34;;;;;;;4.80;3.90;;;18.60;99.90;;;;;;8267072;28;20037;-82
2023/10/19 13:55:36;;;;;;;4.43;3.45;;;18.30;99.90;;;;;;8288110;28;21202;-83
2023/10/19 13:59:37;;;;;;;5.07;3.88;;;18.50;99.90;;;;;;8262155;28;20034;-83
2023/10/19 14:03:38;;;;;;;5.72;3.72;;;18.90;99.90;;;;;;8258430;28;20414;-83
2023/10/19 14:07:39;;;;;;;5.07;4.15;;;18.90;99.90;;;;;;8263533;28;20433;-82
2023/10/19 14:11:40;;;;;;;6.50;4.30;;;19.00;99.90;;;;;;8279112;28;20034;-83
2023/10/19 14:15:42;;;;;;;5.07;3.72;;;18.90;99.90;;;;;;8267656;28;20387;-81
2023/10/19 14:19:44;;;;;;;4.97;3.78;;;18.80;99.90;;;;;;8258579;28;20398;-83
2023/10/19 14:23:45;;;;;;;4.97;4.22;;;18.80;99.90;;;;;;8264295;28;20013;-82
2023/10/19 14:27:47;;;;;;;5.13;4.10;;;18.60;99.90;;;;;;8263625;28;20060;-83
2023/10/19 14:31:48;;;;;;;8.05;4.30;;;18.50;99.90;;;;;;8277745;28;20502;-84
2023/10/19 14:35:48;;;;;;;6.55;4.65;;;18.30;99.90;;;;;;8274186;28;20073;-81
2023/10/19 14:39:49;;;;;;;5.13;4.28;;;18.30;99.90;;;;;;8268900;28;20033;-83
2023/10/19 14:43:49;;;;;;;6.65;5.10;;;18.20;99.90;;;;;;8262046;28;20058;-84
2023/10/19 14:48:04;;;;;;;7.70;5.70;;;18.10;99.90;;;;;;8263297;28;20406;-84
2023/10/19 14:52:05;;;;;;;9.82;7.25;;;18.10;99.90;;;;;;8259877;28;20057;-83
2023/10/19 14:56:07;;;;;;;10.48;7.10;;;18.10;99.90;;;;;;8278391;28;20101;-82
2023/10/19 15:00:25;;;;;;;8.90;6.32;;;18.10;99.90;;;;;;8293409;28;20032;-83
2023/10/19 15:04:27;;;;;;;6.70;5.38;;;18.00;99.90;;;;;;8276343;28;20098;-83
2023/10/19 15:08:30;;;;;;;8.73;5.65;;;18.00;99.90;;;;;;8263498;28;20076;-84
2023/10/19 15:12:31;;;;;;;9.50;5.68;;;18.00;99.90;;;;;;8263453;28;20029;-82
2023/10/19 15:16:32;;;;;;;11.52;6.95;;;17.90;99.90;;;;;;8264863;28;20042;-83
2023/10/19 15:20:33;;;;;;;9.57;7.32;;;17.80;99.90;;;;;;8260156;28;20122;-83
2023/10/19 15:24:33;;;;;;;6.57;5.05;;;17.90;99.90;;;;;;8270314;28;20038;-82
2023/10/19 15:28:34;;;;;;;8.13;5.38;;;17.70;99.90;;;;;;8265118;28;20041;-83
2023/10/19 15:32:35;;;;;;;9.45;5.20;;;17.20;99.90;;;;;;8284173;28;20105;-83
2023/10/19 15:36:36;;;;;;;8.40;5.30;;;17.00;99.90;;;;;;8260827;28;20418;-82
2023/10/19 15:40:40;;;;;;;5.85;4.80;;;16.80;99.90;;;;;;8255622;28;20026;-83
2023/10/19 15:44:41;;;;;;;6.55;3.92;;;16.50;99.90;;;;;;8263729;28;20026;-83
2023/10/19 15:48:41;;;;;;;6.40;4.32;;;16.40;99.90;;;;;;8258569;28;20049;-82
2023/10/19 15:52:44;;;;;;;9.23;4.13;;;16.50;99.90;;;;;;8237816;28;20072;-83
2023/10/19 15:56:45;;;;;;;5.28;3.90;;;16.10;99.90;;;;;;8268013;28;20049;-82
2023/10/19 16:00:46;;;;;;;5.72;4.20;;;16.00;99.90;;;;;;8250120;28;20065;-81
2023/10/19 16:04:47;;;;;;;5.65;3.97;;;15.60;99.90;;;;;;8257212;28;20026;-82
2023/10/19 16:08:48;;;;;;;6.57;4.30;;;15.30;99.90;;;;;;8260037;28;20491;-82
2023/10/19 16:12:48;;;;;;;6.00;4.25;;;15.00;99.90;;;;;;8276083;28;20030;-82
2023/10/19 16:16:49;;;;;;;5.93;4.53;;;14.90;99.90;;;;;;8262978;28;20030;-82
2023/10/19 16:20:49;;;;;;;5.50;3.97;;;14.60;99.90;;;;;;8248303;28;20034;-82
2023/10/19 16:24:50;;;;;;;4.78;3.80;;;14.40;99.90;;;;;;8254588;28;20034;-81
2023/10/19 16:28:50;;;;;;;5.30;4.35;;;14.10;99.90;;;;;;8270173;28;20030;-83
2023/10/19 16:32:51;;;;;;;5.93;3.72;;;13.90;99.90;;;;;;8261785;28;20026;-84
2023/10/19 16:36:52;;;;;;;5.00;3.42;;;13.60;99.90;;;;;;8254495;28;20041;-80
2023/10/19 16:40:59;;;;;;;6.60;4.57;;;13.50;99.90;;;;;;8254670;28;20117;-82
2023/10/19 16:45:00;;;;;;;11.27;7.40;;;13.30;99.90;;;;;;8258700;28;20026;-81
2023/10/19 16:49:00;;;;;;;7.97;5.80;;;13.30;99.90;;;;;;8248010;28;20034;-83
2023/10/19 16:53:01;;;;;;;6.90;4.90;;;13.40;99.90;;;;;;8259151;28;20021;-83
2023/10/19 16:57:02;;;;;;;6.75;4.47;;;13.60;99.90;;;;;;8255040;28;20116;-82
2023/10/19 17:01:09;;;;;;;7.15;5.18;;;13.70;99.90;;;;;;8270894;28;20064;-82
2023/10/19 17:05:10;;;;;;;6.95;5.20;;;13.80;99.90;;;;;;8262158;28;20034;-81
2023/10/19 17:09:18;;;;;;;10.45;6.13;;;13.80;99.90;;;;;;8257180;28;20041;-80
2023/10/19 17:13:19;;;;;;;9.00;6.57;;;13.70;99.90;;;;;;8251254;28;20545;-80
2023/10/19 17:17:19;;;;;;;9.15;6.72;;;13.90;99.90;;;;;;8253335;28;20030;-80
2023/10/19 17:21:20;;;;;;;8.38;6.07;;;14.10;99.90;;;;;;8251631;28;20667;-80
2023/10/19 17:25:21;;;;;;;9.10;6.40;;;14.30;99.90;;;;;;8250733;28;20026;-80
2023/10/19 17:29:21;;;;;;;12.18;7.28;;;14.20;99.90;;;;;;8260734;28;20077;-80
2023/10/19 17:33:22;;;;;;;12.93;8.13;;;14.10;99.90;;;;;;8247225;28;20574;-80
2023/10/19 17:37:23;;;;;;;12.90;8.30;;;13.90;99.90;;;;;;8255948;28;20034;-80
2023/10/19 17:41:24;;;;;;;14.43;8.70;;;13.90;99.90;;;;;;8251904;28;20113;-80
2023/10/19 17:45:25;;;;;;;11.05;8.02;;;13.90;99.90;;;;;;8246087;28;20622;-81
2023/10/19 17:49:25;;;;;;;9.70;7.53;;;14.00;99.90;;;;;;8262329;28;20038;-80
2023/10/19 17:53:26;;;;;;;12.88;9.55;;;14.00;99.90;;;;;;8270483;28;20037;-81
2023/10/19 17:57:27;;;;;;;9.85;7.75;;;14.00;99.90;;;;;;8242606;28;20030;-81
2023/10/19 18:01:29;;;;;;;8.57;6.40;;;14.00;99.90;;;;;;8258781;28;20149;-81
2023/10/19 18:05:30;;;;;;;11.50;7.72;;;14.10;99.90;;;;;;8256516;28;20022;-80
2023/10/19 18:09:31;;;;;;;16.95;11.90;;;14.00;99.90;;;;;;8250852;28;20065;-81
2023/10/19 18:13:32;;;;;;;10.05;7.10;;;13.90;99.90;;;;;;8246585;28;20026;-80
2023/10/19 18:17:35;;;;;;;8.88;6.68;;;13.80;99.90;;;;;;8252810;28;20085;-80
2023/10/19 18:21:36;;;;;;;11.90;7.55;;;13.70;99.90;;;;;;8248882;28;20022;-80
2023/10/19 18:25:41;;;;;;;15.30;8.32;;;13.70;99.90;;;;;;8251082;28;20041;-80
2023/10/19 18:29:43;;;;;;;12.13;7.80;;;13.80;99.90;;;;;;8255182;28;20057;-81
2023/10/19 18:33:44;;;;;;;12.43;8.80;;;13.70;99.90;;;;;;8256511;28;20096;-81
2023/10/19 18:37:49;;;;;;;7.30;5.72;;;13.80;99.90;;;;;;8264968;28;20034;-81
2023/10/19 18:41:49;;;;;;;7.65;5.07;;;13.90;99.90;;;;;;8262603;28;20030;-81
2023/10/19 18:45:50;;;;;;;6.45;4.47;;;13.90;99.90;;;;;;8269740;28;20109;-80
2023/10/19 18:49:55;;;;;;;7.68;5.32;;;13.80;99.90;;;;;;8281770;28;20029;-80
2023/10/19 18:53:55;;;;;;;5.65;4.82;;;13.90;99.90;;;;;;8261869;28;20038;-81
2023/10/19 18:57:59;;;;;;;5.43;3.90;;;13.90;99.90;;;;;;8267015;28;20045;-81
2023/10/19 19:01:59;;;;;;;7.15;4.85;;;13.90;99.90;;;;;;8252914;28;20050;-81
2023/10/19 19:06:04;;;;;;;6.63;4.65;;;13.80;99.90;;;;;;8265162;28;20037;-81
2023/10/19 19:10:05;;;;;;;6.22;4.30;;;13.70;99.90;;;;;;8260883;28;20717;-81
2023/10/19 19:14:06;;;;;;;5.75;4.28;;;13.80;99.90;;;;;;8254828;28;20038;-81
2023/10/19 19:18:07;;;;;;;6.25;4.60;;;13.70;99.90;;;;;;8275357;28;20026;-81
2023/10/19 19:22:08;;;;;;;10.45;5.82;;;13.70;99.90;;;;;;8252015;28;20491;-80
2023/10/19 19:26:13;;;;;;;11.57;6.40;;;13.70;99.90;;;;;;8254678;28;20596;-81
2023/10/19 19:30:13;;;;;;;10.45;5.78;;;13.60;99.90;;;;;;8256231;28;20030;-80
2023/10/19 19:34:14;;;;;;;9.35;5.05;;;13.70;99.90;;;;;;8257548;28;20447;-81
2023/10/19 19:38:15;;;;;;;9.43;5.18;;;13.70;99.90;;;;;;8275168;28;20030;-81
2023/10/19 19:42:15;;;;;;;4.30;3.55;;;13.80;99.90;;;;;;8262688;28;20061;-80
2023/10/19 19:46:18;;;;;;;6.72;4.28;;;13.90;99.90;;;;;;8274517;28;20037;-81
2023/10/19 19:50:19;;;;;;;5.00;3.80;;;13.90;99.90;;;;;;8252014;28;20057;-81
2023/10/19 19:54:21;;;;;;;7.13;4.28;;;13.90;99.90;;;;;;8262764;28;20526;-81
2023/10/19 19:58:22;;;;;;;6.88;4.88;;;13.80;99.90;;;;;;8269475;28;20125;-80
2023/10/19 20:02:22;;;;;;;5.45;3.88;;;13.80;99.90;;;;;;8285502;28;20041;-81
2023/10/19 20:06:23;;;;;;;5.70;4.03;;;13.80;99.90;;;;;;8280187;28;20029;-80
2023/10/19 20:10:34;;;;;;;6.05;4.07;;;13.80;99.90;;;;;;8254908;28;20041;-81
2023/10/19 20:14:34;;;;;;;5.75;4.38;;;13.50;99.90;;;;;;8273905;28;20038;-81
2023/10/19 20:18:35;;;;;;;7.50;4.72;;;13.40;99.90;;;;;;8251209;28;20080;-81
2023/10/19 20:22:36;;;;;;;6.22;4.30;;;13.70;99.90;;;;;;8271761;28;20029;-80
2023/10/19 20:26:36;;;;;;;8.23;4.70;;;13.60;99.90;;;;;;8252824;28;20030;-80
2023/10/19 20:30:37;;;;;;;7.10;4.22;;;13.70;99.90;;;;;;8265253;28;20069;-80
2023/10/19 20:34:37;;;;;;;6.75;4.13;;;13.80;99.90;;;;;;8253760;28;20157;-80
2023/10/19 20:38:38;;;;;;;7.13;4.38;;;13.90;99.90;;;;;;8259888;28;20041;-80
2023/10/19 20:42:43;;;;;;;6.25;4.50;;;13.80;99.90;;;;;;8269550;28;20076;-80
2023/10/19 20:46:44;;;;;;;5.30;4.13;;;13.60;99.90;;;;;;8274840;28;20038;-80